createdAt,value
2022-10-03T00:00:18.496Z,6.55
2022-10-03T00:03:25.350Z,6.50
2022-10-03T00:06:10.651Z,5.80
2022-10-03T00:08:59.433Z,6.10
2022-10-03T00:11:41.506Z,6.25
2022-10-03T00:14:21.235Z,5.78
2022-10-03T00:16:57.753Z,6.25
2022-10-03T00:19:36.024Z,5.88
2022-10-03T00:22:15.450Z,5.53
2022-10-03T00:24:56.290Z,5.65
2022-10-03T00:27:37.188Z,5.47
2022-10-03T00:30:19.236Z,6.35
2022-10-03T00:32:57.180Z,5.55
2022-10-03T00:35:37.461Z,5.55
2022-10-03T00:38:28.758Z,4.72
2022-10-03T00:41:29.669Z,6.30
2022-10-03T00:44:30.409Z,4.93
2022-10-03T00:47:42.884Z,5.40
2022-10-03T00:50:53.319Z,5.40
2022-10-03T00:53:55.773Z,5.20
2022-10-03T00:56:51.697Z,4.85
2022-10-03T00:59:34.158Z,4.53
2022-10-03T01:02:25.390Z,5.23
2022-10-03T01:05:01.357Z,5.70
2022-10-03T01:07:59.198Z,7.78
2022-10-03T01:10:47.663Z,8.30
2022-10-03T01:13:30.277Z,9.25
2022-10-03T01:16:10.334Z,10.70
2022-10-03T01:18:54.402Z,11.13
2022-10-03T01:21:34.452Z,10.85
2022-10-03T01:24:34.045Z,10.68
2022-10-03T01:27:05.899Z,8.98
2022-10-03T01:30:11.666Z,7.65
2022-10-03T01:32:50.593Z,6.75
2022-10-03T01:35:45.570Z,5.72
2022-10-03T01:38:21.703Z,5.70
2022-10-03T01:40:59.622Z,5.10
2022-10-03T01:43:39.080Z,5.20
2022-10-03T01:46:17.925Z,4.30
2022-10-03T01:48:57.531Z,4.63
2022-10-03T01:51:33.170Z,4.60
2022-10-03T01:54:15.051Z,4.88
2022-10-03T01:56:54.600Z,5.28
2022-10-03T01:59:33.345Z,4.93
2022-10-03T02:02:10.339Z,5.28
2022-10-03T02:04:47.755Z,5.40
2022-10-03T02:07:25.015Z,5.18
2022-10-03T02:10:07.167Z,4.70
2022-10-03T02:12:40.704Z,4.53
2022-10-03T02:15:18.461Z,4.25
2022-10-03T02:17:55.858Z,4.93
2022-10-03T02:20:35.870Z,4.68
2022-10-03T02:23:15.893Z,5.10
2022-10-03T02:26:00.127Z,5.15
2022-10-03T02:28:56.661Z,7.03
2022-10-03T02:32:12.085Z,5.80
2022-10-03T02:35:23.047Z,5.80
2022-10-03T02:38:19.435Z,6.50
2022-10-03T02:44:48.471Z,5.50
2022-10-03T02:50:39.746Z,7.03
2022-10-03T02:54:15.555Z,7.18
2022-10-03T02:57:29.878Z,6.88
2022-10-03T03:00:19.142Z,6.70
2022-10-03T03:03:29.768Z,6.88
2022-10-03T03:06:42.839Z,6.20
2022-10-03T03:13:59.178Z,5.55
2022-10-03T03:17:09.887Z,5.95
2022-10-03T03:20:01.361Z,5.50
2022-10-03T03:22:47.432Z,5.45
2022-10-03T03:25:36.763Z,5.20
2022-10-03T03:28:28.187Z,6.07
2022-10-03T03:31:08.476Z,6.50
2022-10-03T03:33:53.378Z,5.32
2022-10-03T03:36:36.336Z,6.32
2022-10-03T03:39:16.192Z,6.07
2022-10-03T03:42:06.380Z,7.03
2022-10-03T03:45:10.759Z,6.53
2022-10-03T03:47:58.770Z,6.20
2022-10-03T03:50:46.207Z,6.63
2022-10-03T03:53:36.504Z,6.72
2022-10-03T03:56:31.530Z,7.07
2022-10-03T03:59:14.748Z,7.10
2022-10-03T04:02:01.565Z,6.45
2022-10-03T04:04:57.629Z,5.50
2022-10-03T04:07:49.205Z,5.97
2022-10-03T04:10:43.035Z,6.03
2022-10-03T04:13:49.883Z,5.70
2022-10-03T04:17:06.048Z,5.38
2022-10-03T04:19:49.298Z,6.38
2022-10-03T04:22:43.607Z,5.40
2022-10-03T04:25:36.240Z,6.32
2022-10-03T04:28:39.380Z,6.20
2022-10-03T04:31:26.572Z,6.03
2022-10-03T04:34:13.892Z,6.20
2022-10-03T04:37:09.738Z,6.10
2022-10-03T04:39:49.223Z,6.25
2022-10-03T04:42:29.804Z,6.40
2022-10-03T04:45:28.985Z,6.95
2022-10-03T04:48:12.888Z,6.28
2022-10-03T04:50:50.074Z,6.30
2022-10-03T04:53:41.125Z,5.90
2022-10-03T04:56:29.013Z,5.60
2022-10-03T04:59:06.455Z,6.85
2022-10-03T05:01:46.102Z,6.18
2022-10-03T05:04:41.784Z,6.20
2022-10-03T05:07:34.612Z,6.20
2022-10-03T05:10:21.675Z,5.60
2022-10-03T05:13:27.066Z,6.22
2022-10-03T05:16:09.186Z,6.32
2022-10-03T05:19:02.154Z,6.63
2022-10-03T05:21:42.868Z,7.57
2022-10-03T05:24:23.713Z,8.63
2022-10-03T05:27:06.646Z,9.93
2022-10-03T05:29:49.746Z,10.00
2022-10-03T05:32:29.719Z,9.55
2022-10-03T05:35:20.050Z,8.50
2022-10-03T05:38:23.369Z,8.60
2022-10-03T05:41:07.005Z,8.20
2022-10-03T05:43:48.970Z,8.15
2022-10-03T05:46:38.814Z,10.73
2022-10-03T05:49:38.691Z,9.25
2022-10-03T05:55:54.884Z,9.32
2022-10-03T05:59:24.435Z,13.77
2022-10-03T06:02:27.635Z,12.27
2022-10-03T06:05:28.631Z,9.25
2022-10-03T06:08:32.677Z,9.25
2022-10-03T06:11:21.341Z,7.75
2022-10-03T06:14:19.271Z,7.32
2022-10-03T06:16:58.333Z,7.82
2022-10-03T06:19:40.306Z,7.68
2022-10-03T06:22:47.198Z,7.35
2022-10-03T06:25:41.593Z,8.15
2022-10-03T06:28:42.640Z,7.78
2022-10-03T06:31:49.862Z,7.95
2022-10-03T06:34:44.638Z,8.50
2022-10-03T06:38:00.400Z,8.02
2022-10-03T06:41:10.873Z,9.55
2022-10-03T06:44:07.850Z,9.25
2022-10-03T06:47:01.171Z,9.63
2022-10-03T06:50:10.181Z,9.90
2022-10-03T06:53:07.788Z,11.80
2022-10-03T06:56:06.383Z,11.38
2022-10-03T06:58:54.815Z,12.10
2022-10-03T07:01:53.385Z,12.27
2022-10-03T07:04:54.384Z,13.98
2022-10-03T07:08:17.352Z,12.35
2022-10-03T07:11:03.249Z,14.20
2022-10-03T07:14:10.394Z,11.68
2022-10-03T07:17:04.228Z,13.93
2022-10-03T07:19:58.131Z,13.38
2022-10-03T07:23:17.152Z,15.05
2022-10-03T07:26:36.193Z,18.02
2022-10-03T07:29:29.631Z,15.93
2022-10-03T07:32:32.343Z,14.85
2022-10-03T07:36:08.761Z,14.18
2022-10-03T07:39:09.860Z,12.88
2022-10-03T07:42:10.457Z,14.10
2022-10-03T07:45:09.544Z,13.55
2022-10-03T07:48:13.503Z,12.80
2022-10-03T07:51:04.358Z,12.30
2022-10-03T07:54:03.280Z,12.75
2022-10-03T07:57:04.037Z,11.10
2022-10-03T08:00:02.435Z,10.77
2022-10-03T08:02:46.433Z,12.05
2022-10-03T08:05:25.800Z,10.60
2022-10-03T08:08:20.831Z,11.50
2022-10-03T08:11:15.507Z,11.05
2022-10-03T08:14:03.407Z,12.57
2022-10-03T08:17:13.505Z,10.10
2022-10-03T08:20:05.632Z,8.98
2022-10-03T08:22:50.666Z,10.20
2022-10-03T08:25:28.845Z,10.02
2022-10-03T08:28:24.848Z,10.13
2022-10-03T08:31:25.534Z,9.05
2022-10-03T08:34:11.271Z,9.77
2022-10-03T08:37:05.394Z,9.60
2022-10-03T08:39:54.741Z,9.32
2022-10-03T08:42:59.059Z,8.80
2022-10-03T08:45:57.038Z,10.32
2022-10-03T08:48:49.761Z,9.75
2022-10-03T08:52:04.284Z,9.40
2022-10-03T08:54:58.121Z,8.93
2022-10-03T08:57:54.325Z,8.55
2022-10-03T09:00:23.825Z,8.63
2022-10-03T09:03:43.372Z,8.60
2022-10-03T09:06:58.534Z,8.80
2022-10-03T09:10:07.947Z,8.20
2022-10-03T09:13:11.318Z,8.50
2022-10-03T09:16:05.176Z,7.70
2022-10-03T09:18:49.168Z,7.93
2022-10-03T09:21:55.285Z,6.55
2022-10-03T09:25:11.228Z,7.78
2022-10-03T09:27:55.282Z,6.57
2022-10-03T09:30:38.004Z,7.55
2022-10-03T09:33:41.853Z,8.07
2022-10-03T09:39:46.818Z,6.70
2022-10-03T09:43:05.440Z,6.05
2022-10-03T09:46:05.573Z,6.78
2022-10-03T09:49:02.263Z,6.82
2022-10-03T09:51:57.875Z,6.35
2022-10-03T09:55:12.695Z,7.03
2022-10-03T09:58:20.644Z,5.28
2022-10-03T10:01:18.351Z,4.53
2022-10-03T10:04:50.534Z,4.95
2022-10-03T10:08:04.822Z,4.68
2022-10-03T10:11:01.313Z,4.93
2022-10-03T10:14:16.546Z,4.50
2022-10-03T10:17:18.029Z,4.45
2022-10-03T10:20:01.635Z,4.75
2022-10-03T10:23:27.841Z,4.85
2022-10-03T10:26:35.073Z,6.50
2022-10-03T10:29:22.519Z,7.40
2022-10-03T10:32:59.668Z,6.57
2022-10-03T10:35:59.630Z,6.40
2022-10-03T10:39:11.280Z,5.40
2022-10-03T10:42:25.617Z,5.90
2022-10-03T10:45:26.116Z,4.57
2022-10-03T10:48:36.708Z,5.40
2022-10-03T10:51:38.284Z,4.72
2022-10-03T10:54:49.049Z,5.93
2022-10-03T10:57:33.983Z,5.95
2022-10-03T11:00:19.669Z,5.97
2022-10-03T11:03:26.156Z,6.18
2022-10-03T11:06:43.966Z,5.65
2022-10-03T11:09:49.645Z,5.75
2022-10-03T11:12:56.372Z,6.18
2022-10-03T11:16:03.546Z,6.70
2022-10-03T11:19:23.156Z,7.53
2022-10-03T11:22:38.669Z,7.32
2022-10-03T11:25:35.504Z,7.82
2022-10-03T11:28:35.392Z,7.38
2022-10-03T11:31:42.040Z,7.90
2022-10-03T11:34:59.580Z,7.93
2022-10-03T11:37:45.954Z,8.73
2022-10-03T11:40:31.227Z,7.63
2022-10-03T11:43:36.833Z,8.05
2022-10-03T11:46:21.464Z,7.38
2022-10-03T11:48:58.088Z,7.47
2022-10-03T11:51:41.143Z,7.18
2022-10-03T11:54:31.199Z,6.43
2022-10-03T11:57:09.074Z,6.13
2022-10-03T11:59:55.505Z,5.57
2022-10-03T12:02:51.446Z,6.30
2022-10-03T12:05:29.101Z,5.65
2022-10-03T12:08:36.234Z,6.25
2022-10-03T12:11:11.580Z,5.60
2022-10-03T12:13:47.560Z,4.30
2022-10-03T12:16:27.815Z,4.70
2022-10-03T12:19:07.359Z,3.83
2022-10-03T12:21:55.669Z,3.50
2022-10-03T12:24:27.903Z,3.67
2022-10-03T12:27:09.171Z,3.67
2022-10-03T12:29:46.021Z,3.42
2022-10-03T12:32:25.476Z,3.28
2022-10-03T12:35:09.383Z,2.42
2022-10-03T12:37:51.368Z,2.80
2022-10-03T12:40:28.997Z,2.08
2022-10-03T12:43:09.512Z,2.28
2022-10-03T12:45:48.412Z,2.00
2022-10-03T12:48:33.792Z,2.40
2022-10-03T12:51:14.504Z,2.42
2022-10-03T12:54:00.179Z,2.05
2022-10-03T12:56:38.747Z,2.25
2022-10-03T12:59:20.453Z,2.08
2022-10-03T13:02:03.688Z,2.20
2022-10-03T13:10:03.236Z,1.90
2022-10-03T13:12:40.274Z,1.90
2022-10-03T13:15:44.579Z,4.78
2022-10-03T13:18:37.433Z,2.63
2022-10-03T13:21:33.325Z,2.30
2022-10-03T13:24:05.655Z,2.22
2022-10-03T13:26:45.044Z,2.13
2022-10-03T13:29:38.971Z,1.65
2022-10-03T13:32:33.177Z,2.00
2022-10-03T13:35:25.240Z,1.80
2022-10-03T13:38:20.791Z,2.42
2022-10-03T13:40:58.927Z,1.98
2022-10-03T13:43:37.696Z,1.70
2022-10-03T13:46:12.810Z,2.00
2022-10-03T13:48:42.944Z,3.90
2022-10-03T13:51:26.016Z,2.13
2022-10-03T13:54:01.542Z,2.05
2022-10-03T13:56:49.136Z,1.98
2022-10-03T13:59:38.812Z,1.70
2022-10-03T14:02:29.428Z,2.80
2022-10-03T14:05:13.211Z,2.10
2022-10-03T14:07:52.295Z,2.30
2022-10-03T14:10:35.817Z,1.92
2022-10-03T14:13:19.868Z,2.50
2022-10-03T14:15:53.773Z,1.65
2022-10-03T14:18:34.908Z,1.65
2022-10-03T14:21:41.700Z,1.95
2022-10-03T14:24:28.740Z,2.35
2022-10-03T14:27:02.723Z,2.10
2022-10-03T14:29:39.769Z,2.08
2022-10-03T14:32:42.341Z,1.90
2022-10-03T14:35:15.375Z,2.40
2022-10-03T14:37:52.551Z,2.45
2022-10-03T14:40:28.089Z,2.55
2022-10-03T14:43:12.667Z,4.05
2022-10-03T14:45:45.918Z,2.60
2022-10-03T14:48:19.017Z,3.08
2022-10-03T14:53:21.489Z,2.90
2022-10-03T14:56:02.216Z,3.35
2022-10-03T14:58:34.524Z,2.67
2022-10-03T15:01:13.052Z,2.10
2022-10-03T15:03:46.480Z,1.75
2022-10-03T15:06:37.032Z,2.65
2022-10-03T15:09:11.087Z,1.92
2022-10-03T15:11:48.345Z,1.90
2022-10-03T15:14:17.803Z,2.40
2022-10-03T15:16:53.787Z,1.80
2022-10-03T15:19:29.172Z,1.40
2022-10-03T15:22:02.963Z,1.67
2022-10-03T15:24:36.189Z,1.85
2022-10-03T15:27:09.178Z,1.35
2022-10-03T15:29:40.515Z,2.75
2022-10-03T15:32:22.735Z,1.45
2022-10-03T15:34:53.733Z,2.17
2022-10-03T15:37:25.413Z,1.40
2022-10-03T15:39:54.422Z,1.70
2022-10-03T15:42:25.510Z,1.50
2022-10-03T15:44:58.054Z,1.40
2022-10-03T15:47:29.206Z,1.60
2022-10-03T15:50:02.086Z,1.30
2022-10-03T15:55:12.260Z,1.40
2022-10-03T15:57:46.220Z,1.50
2022-10-03T16:00:24.460Z,1.60
2022-10-03T16:03:01.745Z,1.65
2022-10-03T16:05:33.236Z,3.22
2022-10-03T16:08:07.270Z,4.03
2022-10-03T16:10:39.761Z,5.05
2022-10-03T16:13:21.265Z,4.32
2022-10-03T16:16:08.739Z,3.60
2022-10-03T16:18:51.994Z,3.90
2022-10-03T16:21:44.468Z,2.95
2022-10-03T16:24:24.884Z,3.15
2022-10-03T16:26:56.227Z,3.40
2022-10-03T16:29:28.501Z,2.63
2022-10-03T16:32:04.698Z,2.63
2022-10-03T16:34:36.379Z,2.72
2022-10-03T16:37:16.534Z,2.90
2022-10-03T16:39:51.672Z,2.80
2022-10-03T16:42:24.936Z,3.20
2022-10-03T16:44:55.468Z,4.00
2022-10-03T16:47:33.207Z,3.63
2022-10-03T16:50:20.844Z,4.60
2022-10-03T16:52:52.336Z,6.38
2022-10-03T16:55:27.768Z,7.90
2022-10-03T16:57:59.871Z,7.28
2022-10-03T17:00:34.889Z,8.07
2022-10-03T17:03:14.756Z,6.15
2022-10-03T17:05:48.395Z,6.45
2022-10-03T17:08:40.791Z,5.07
2022-10-03T17:11:09.314Z,4.57
2022-10-03T17:13:47.007Z,4.38
2022-10-03T17:16:22.727Z,5.07
2022-10-03T17:19:09.865Z,4.32
2022-10-03T17:21:43.584Z,5.18
2022-10-03T17:24:14.120Z,5.15
2022-10-03T17:26:44.739Z,6.55
2022-10-03T17:29:20.857Z,14.38
2022-10-03T17:31:55.832Z,14.25
2022-10-03T17:34:28.907Z,10.23
2022-10-03T17:37:21.832Z,11.18
2022-10-03T17:39:58.903Z,9.35
2022-10-03T17:42:39.548Z,9.75
2022-10-03T17:45:33.602Z,10.35
2022-10-03T17:48:10.693Z,8.13
2022-10-03T17:50:48.631Z,8.25
2022-10-03T17:53:22.482Z,7.60
2022-10-03T17:55:56.315Z,7.45
2022-10-03T17:58:28.316Z,8.68
2022-10-03T18:01:07.584Z,7.97
2022-10-03T18:03:44.333Z,10.60
2022-10-03T18:06:46.154Z,9.88
2022-10-03T18:09:33.382Z,7.82
2022-10-03T18:12:23.389Z,7.75
2022-10-03T18:15:24.516Z,7.07
2022-10-03T18:18:04.765Z,7.95
2022-10-03T18:20:49.243Z,8.40
2022-10-03T18:23:50.003Z,8.88
2022-10-03T18:26:26.794Z,7.85
2022-10-03T18:29:11.480Z,8.00
2022-10-03T18:31:45.274Z,7.78
2022-10-03T18:34:21.359Z,7.53
2022-10-03T18:36:53.213Z,8.60
2022-10-03T18:39:27.373Z,9.63
2022-10-03T18:41:59.871Z,9.05
2022-10-03T18:44:30.637Z,10.38
2022-10-03T18:47:12.802Z,11.75
2022-10-03T18:49:44.699Z,11.40
2022-10-03T18:52:18.881Z,10.15
2022-10-03T18:54:57.888Z,9.65
2022-10-03T18:57:36.556Z,8.52
2022-10-03T19:00:09.220Z,6.82
2022-10-03T19:02:43.362Z,7.78
2022-10-03T19:05:20.092Z,8.65
2022-10-03T19:07:54.698Z,9.10
2022-10-03T19:10:41.279Z,10.15
2022-10-03T19:13:26.223Z,14.32
2022-10-03T19:16:15.214Z,12.25
2022-10-03T19:18:45.459Z,11.75
2022-10-03T19:21:20.046Z,9.27
2022-10-03T19:23:53.072Z,9.43
2022-10-03T19:26:25.621Z,8.52
2022-10-03T19:29:04.632Z,8.43
2022-10-03T19:31:36.829Z,9.35
2022-10-03T19:34:13.509Z,8.83
2022-10-03T19:36:43.144Z,9.02
2022-10-03T19:39:16.436Z,7.72
2022-10-03T19:41:53.318Z,8.23
2022-10-03T19:44:26.305Z,7.32
2022-10-03T19:47:07.684Z,8.50
2022-10-03T19:49:51.973Z,22.42
2022-10-03T19:52:26.636Z,12.73
2022-10-03T19:55:02.020Z,10.85
2022-10-03T19:57:40.208Z,9.27
2022-10-03T20:00:23.393Z,10.57
2022-10-03T20:02:57.430Z,9.70
2022-10-03T20:05:30.736Z,10.20
2022-10-03T20:08:04.146Z,9.98
2022-10-03T20:10:43.472Z,10.00
2022-10-03T20:13:12.823Z,9.65
2022-10-03T20:15:46.513Z,9.05
2022-10-03T20:18:24.040Z,9.15
2022-10-03T20:20:56.117Z,9.85
2022-10-03T20:23:26.651Z,10.20
2022-10-03T20:26:01.371Z,9.35
2022-10-03T20:28:48.125Z,7.93
2022-10-03T20:31:25.578Z,7.22
2022-10-03T20:33:55.502Z,7.20
2022-10-03T20:36:27.017Z,7.18
2022-10-03T20:39:07.216Z,7.53
2022-10-03T20:41:50.531Z,7.15
2022-10-03T20:44:29.836Z,7.82
2022-10-03T20:47:07.514Z,7.88
2022-10-03T20:49:41.898Z,9.60
2022-10-03T20:52:17.976Z,8.85
2022-10-03T20:54:51.405Z,8.48
2022-10-03T20:57:25.314Z,8.35
2022-10-03T21:00:00.609Z,8.75
2022-10-03T21:02:38.504Z,8.45
2022-10-03T21:05:16.029Z,8.68
2022-10-03T21:07:52.994Z,7.97
2022-10-03T21:10:27.959Z,7.30
2022-10-03T21:13:00.668Z,7.50
2022-10-03T21:15:43.542Z,6.97
2022-10-03T21:18:23.216Z,7.25
2022-10-03T21:21:02.313Z,7.45
2022-10-03T21:23:33.425Z,7.43
2022-10-03T21:26:03.611Z,7.03
2022-10-03T21:28:35.626Z,7.28
2022-10-03T21:31:44.985Z,6.80
2022-10-03T21:34:22.382Z,8.27
2022-10-03T21:36:57.066Z,6.25
2022-10-03T21:39:37.557Z,7.35
2022-10-03T21:42:18.024Z,6.13
2022-10-03T21:45:10.141Z,5.90
2022-10-03T21:47:48.771Z,6.10
2022-10-03T21:50:29.669Z,6.05
2022-10-03T21:53:17.920Z,6.53
2022-10-03T21:56:11.349Z,6.63
2022-10-03T21:58:55.457Z,6.47
2022-10-03T22:01:33.754Z,6.63
2022-10-03T22:04:09.609Z,6.32
2022-10-03T22:06:47.662Z,6.75
2022-10-03T22:09:17.217Z,7.05
2022-10-03T22:11:50.995Z,6.35
2022-10-03T22:14:29.770Z,6.68
2022-10-03T22:17:06.083Z,6.07
2022-10-03T22:19:37.960Z,6.60
2022-10-03T22:22:19.611Z,7.80
2022-10-03T22:24:56.994Z,7.88
2022-10-03T22:27:35.916Z,8.07
2022-10-03T22:30:08.401Z,7.35
2022-10-03T22:32:43.222Z,7.97
2022-10-03T22:35:30.995Z,9.20
2022-10-03T22:38:05.199Z,10.80
2022-10-03T22:40:34.568Z,10.13
2022-10-03T22:43:04.997Z,10.02
2022-10-03T22:45:37.750Z,8.80
2022-10-03T22:48:14.737Z,7.97
2022-10-03T22:50:48.861Z,7.28
2022-10-03T22:53:23.005Z,6.35
2022-10-03T22:55:54.985Z,6.45
2022-10-03T22:58:29.576Z,6.65
2022-10-03T23:00:59.630Z,6.28
2022-10-03T23:03:33.806Z,7.57
2022-10-03T23:06:34.747Z,5.75
2022-10-03T23:09:15.928Z,5.90
2022-10-03T23:12:05.364Z,6.30
2022-10-03T23:14:37.770Z,5.68
2022-10-03T23:17:21.706Z,5.95
2022-10-03T23:20:02.074Z,6.72
2022-10-03T23:22:35.089Z,6.43
2022-10-03T23:25:09.785Z,6.28
2022-10-03T23:27:51.111Z,5.78
2022-10-03T23:30:48.824Z,5.97
2022-10-03T23:33:46.080Z,5.57
2022-10-03T23:36:20.405Z,5.70
2022-10-03T23:39:02.868Z,6.70
2022-10-03T23:41:46.013Z,6.33
2022-10-03T23:44:46.895Z,7.55
2022-10-03T23:47:20.789Z,5.70
2022-10-03T23:49:53.234Z,5.88
2022-10-03T23:52:25.394Z,6.38
2022-10-03T23:54:56.645Z,5.67
2022-10-03T23:57:32.111Z,5.53
